sensor_id;sensor_type;location;lat;lon;timestamp;pressure;altitude;pressure_sealevel;temperature;humidity
5905;BME280;2978;42.012;24.880;2023-03-22T00:00:34;98394.94;;;12.66;90.77
5905;BME280;2978;42.012;24.880;2023-03-22T00:03:01;98392.34;;;12.74;90.44
5905;BME280;2978;42.012;24.880;2023-03-22T00:05:26;98386.81;;;12.74;89.87
5905;BME280;2978;42.012;24.880;2023-03-22T00:07:54;98382.25;;;12.83;89.54
5905;BME280;2978;42.012;24.880;2023-03-22T00:10:25;98386.50;;;12.94;89.12
5905;BME280;2978;42.012;24.880;2023-03-22T00:12:53;98387.81;;;13.02;88.21
5905;BME280;2978;42.012;24.880;2023-03-22T00:15:19;98383.31;;;13.06;87.67
5905;BME280;2978;42.012;24.880;2023-03-22T00:17:45;98377.50;;;13.07;87.61
5905;BME280;2978;42.012;24.880;2023-03-22T00:20:10;98376.28;;;13.13;87.04
5905;BME280;2978;42.012;24.880;2023-03-22T00:22:39;98371.59;;;13.14;85.71
5905;BME280;2978;42.012;24.880;2023-03-22T00:25:05;98355.22;;;13.04;85.89
5905;BME280;2978;42.012;24.880;2023-03-22T00:27:31;98376.47;;;13.03;85.20
5905;BME280;2978;42.012;24.880;2023-03-22T00:29:57;98363.56;;;12.99;85.68
5905;BME280;2978;42.012;24.880;2023-03-22T00:32:22;98364.59;;;12.84;86.03
5905;BME280;2978;42.012;24.880;2023-03-22T00:34:47;98367.44;;;12.79;86.06
5905;BME280;2978;42.012;24.880;2023-03-22T00:37:14;98379.56;;;12.78;86.16
5905;BME280;2978;42.012;24.880;2023-03-22T00:39:46;98367.38;;;12.66;86.62
5905;BME280;2978;42.012;24.880;2023-03-22T00:42:11;98375.88;;;12.69;86.71
5905;BME280;2978;42.012;24.880;2023-03-22T00:44:37;98365.94;;;12.68;87.27
5905;BME280;2978;42.012;24.880;2023-03-22T00:47:02;98364.09;;;12.64;87.09
5905;BME280;2978;42.012;24.880;2023-03-22T00:49:28;98348.19;;;12.56;87.11
5905;BME280;2978;42.012;24.880;2023-03-22T00:51:54;98363.19;;;12.68;86.88
5905;BME280;2978;42.012;24.880;2023-03-22T00:54:19;98354.16;;;12.63;86.49
5905;BME280;2978;42.012;24.880;2023-03-22T00:56:45;98361.91;;;12.61;86.12
5905;BME280;2978;42.012;24.880;2023-03-22T00:59:14;98368.41;;;12.51;86.11
5905;BME280;2978;42.012;24.880;2023-03-22T01:01:41;98368.16;;;12.48;86.19
5905;BME280;2978;42.012;24.880;2023-03-22T01:04:06;98371.22;;;12.46;86.49
5905;BME280;2978;42.012;24.880;2023-03-22T01:06:32;98368.00;;;12.39;86.56
5905;BME280;2978;42.012;24.880;2023-03-22T01:08:58;98360.75;;;12.43;86.26
5905;BME280;2978;42.012;24.880;2023-03-22T01:11:24;98365.84;;;12.36;86.53
5905;BME280;2978;42.012;24.880;2023-03-22T01:13:50;98370.78;;;12.39;86.27
5905;BME280;2978;42.012;24.880;2023-03-22T01:16:16;98367.47;;;12.37;86.57
5905;BME280;2978;42.012;24.880;2023-03-22T01:18:42;98353.25;;;12.30;86.58
5905;BME280;2978;42.012;24.880;2023-03-22T01:21:07;98360.75;;;12.24;87.31
5905;BME280;2978;42.012;24.880;2023-03-22T01:23:33;98363.22;;;12.26;87.18
5905;BME280;2978;42.012;24.880;2023-03-22T01:25:59;98356.00;;;12.30;87.04
5905;BME280;2978;42.012;24.880;2023-03-22T01:28:26;98360.97;;;12.28;87.05
5905;BME280;2978;42.012;24.880;2023-03-22T01:30:52;98349.56;;;12.16;87.36
5905;BME280;2978;42.012;24.880;2023-03-22T01:33:18;98354.41;;;12.24;87.68
5905;BME280;2978;42.012;24.880;2023-03-22T01:35:43;98356.28;;;12.10;87.81
5905;BME280;2978;42.012;24.880;2023-03-22T01:38:09;98351.88;;;12.09;88.02
5905;BME280;2978;42.012;24.880;2023-03-22T01:40:35;98347.81;;;12.01;88.67
5905;BME280;2978;42.012;24.880;2023-03-22T01:43:00;98352.06;;;11.94;89.16
5905;BME280;2978;42.012;24.880;2023-03-22T01:48:03;98356.03;;;11.83;90.01
5905;BME280;2978;42.012;24.880;2023-03-22T01:50:29;98355.38;;;11.91;90.39
5905;BME280;2978;42.012;24.880;2023-03-22T01:52:56;98352.06;;;11.94;90.32
5905;BME280;2978;42.012;24.880;2023-03-22T01:55:23;98360.41;;;11.84;90.75
5905;BME280;2978;42.012;24.880;2023-03-22T01:57:52;98359.16;;;11.76;91.32
5905;BME280;2978;42.012;24.880;2023-03-22T02:00:18;98367.19;;;11.73;92.10
5905;BME280;2978;42.012;24.880;2023-03-22T02:02:47;98366.75;;;11.84;91.67
5905;BME280;2978;42.012;24.880;2023-03-22T02:05:15;98369.16;;;11.91;91.57
5905;BME280;2978;42.012;24.880;2023-03-22T02:07:42;98358.13;;;11.91;91.07
5905;BME280;2978;42.012;24.880;2023-03-22T02:10:21;98365.31;;;11.92;91.03
5905;BME280;2978;42.012;24.880;2023-03-22T02:15:24;98358.91;;;11.96;90.71
5905;BME280;2978;42.012;24.880;2023-03-22T02:18:34;98367.06;;;12.06;90.26
5905;BME280;2978;42.012;24.880;2023-03-22T02:27:11;98364.88;;;12.03;89.40
5905;BME280;2978;42.012;24.880;2023-03-22T02:41:10;98364.41;;;11.96;91.58
5905;BME280;2978;42.012;24.880;2023-03-22T02:44:21;98369.16;;;11.91;92.56
5905;BME280;2978;42.012;24.880;2023-03-22T02:47:02;98368.81;;;11.74;93.37
5905;BME280;2978;42.012;24.880;2023-03-22T02:49:39;98368.31;;;11.67;93.88
5905;BME280;2978;42.012;24.880;2023-03-22T02:55:39;98373.28;;;11.70;94.35
5905;BME280;2978;42.012;24.880;2023-03-22T02:58:28;98373.31;;;11.60;94.10
5905;BME280;2978;42.012;24.880;2023-03-22T03:01:00;98375.75;;;11.38;95.32
5905;BME280;2978;42.012;24.880;2023-03-22T03:03:28;98369.66;;;11.41;95.21
5905;BME280;2978;42.012;24.880;2023-03-22T03:05:59;98377.97;;;11.35;96.34
5905;BME280;2978;42.012;24.880;2023-03-22T03:08:27;98371.44;;;11.26;96.48
5905;BME280;2978;42.012;24.880;2023-03-22T03:10:53;98374.50;;;11.25;96.99
5905;BME280;2978;42.012;24.880;2023-03-22T03:13:19;98382.41;;;11.31;96.87
5905;BME280;2978;42.012;24.880;2023-03-22T03:15:50;98383.91;;;11.19;97.58
5905;BME280;2978;42.012;24.880;2023-03-22T03:23:50;98383.47;;;11.35;97.10
5905;BME280;2978;42.012;24.880;2023-03-22T03:29:04;98388.09;;;11.45;96.72
5905;BME280;2978;42.012;24.880;2023-03-22T03:31:51;98377.59;;;11.47;96.02
5905;BME280;2978;42.012;24.880;2023-03-22T03:34:25;98386.31;;;11.54;95.96
5905;BME280;2978;42.012;24.880;2023-03-22T03:36:59;98395.94;;;11.57;96.10
5905;BME280;2978;42.012;24.880;2023-03-22T03:39:29;98391.44;;;11.71;95.86
5905;BME280;2978;42.012;24.880;2023-03-22T03:41:57;98387.72;;;11.80;94.69
5905;BME280;2978;42.012;24.880;2023-03-22T03:44:24;98396.59;;;11.77;94.28
5905;BME280;2978;42.012;24.880;2023-03-22T03:46:50;98389.22;;;11.73;93.89
5905;BME280;2978;42.012;24.880;2023-03-22T03:49:17;98396.88;;;11.76;94.20
5905;BME280;2978;42.012;24.880;2023-03-22T03:51:49;98402.09;;;11.77;94.54
5905;BME280;2978;42.012;24.880;2023-03-22T03:54:16;98402.28;;;11.86;93.81
5905;BME280;2978;42.012;24.880;2023-03-22T03:56:41;98405.09;;;11.81;93.81
5905;BME280;2978;42.012;24.880;2023-03-22T03:59:07;98414.19;;;11.81;94.11
5905;BME280;2978;42.012;24.880;2023-03-22T04:01:33;98406.59;;;11.68;94.15
5905;BME280;2978;42.012;24.880;2023-03-22T04:04:00;98415.75;;;11.59;95.12
5905;BME280;2978;42.012;24.880;2023-03-22T04:06:25;98418.44;;;11.64;95.17
5905;BME280;2978;42.012;24.880;2023-03-22T04:08:50;98421.19;;;11.69;95.53
5905;BME280;2978;42.012;24.880;2023-03-22T04:11:18;98416.25;;;11.66;94.96
5905;BME280;2978;42.012;24.880;2023-03-22T04:13:44;98417.09;;;11.66;95.21
5905;BME280;2978;42.012;24.880;2023-03-22T04:16:10;98420.34;;;11.68;95.63
5905;BME280;2978;42.012;24.880;2023-03-22T04:18:35;98425.59;;;11.70;95.46
5905;BME280;2978;42.012;24.880;2023-03-22T04:21:01;98425.84;;;11.68;95.70
5905;BME280;2978;42.012;24.880;2023-03-22T04:23:27;98425.06;;;11.68;95.92
5905;BME280;2978;42.012;24.880;2023-03-22T04:25:53;98428.00;;;11.76;95.52
5905;BME280;2978;42.012;24.880;2023-03-22T04:28:18;98416.69;;;11.78;95.56
5905;BME280;2978;42.012;24.880;2023-03-22T04:30:45;98425.25;;;11.76;95.20
5905;BME280;2978;42.012;24.880;2023-03-22T04:33:15;98422.53;;;11.71;95.43
5905;BME280;2978;42.012;24.880;2023-03-22T04:35:40;98431.59;;;11.72;96.80
5905;BME280;2978;42.012;24.880;2023-03-22T04:38:05;98432.78;;;11.66;97.64
5905;BME280;2978;42.012;24.880;2023-03-22T04:40:32;98423.41;;;11.67;98.34
5905;BME280;2978;42.012;24.880;2023-03-22T04:43:00;98425.88;;;11.63;98.62
5905;BME280;2978;42.012;24.880;2023-03-22T04:45:28;98427.28;;;11.66;99.01
5905;BME280;2978;42.012;24.880;2023-03-22T04:47:57;98418.97;;;11.71;98.45
5905;BME280;2978;42.012;24.880;2023-03-22T04:50:22;98419.50;;;11.73;98.17
5905;BME280;2978;42.012;24.880;2023-03-22T04:52:48;98423.59;;;11.75;97.95
5905;BME280;2978;42.012;24.880;2023-03-22T04:55:14;98424.19;;;11.72;97.58
5905;BME280;2978;42.012;24.880;2023-03-22T04:57:40;98429.94;;;11.76;97.47
5905;BME280;2978;42.012;24.880;2023-03-22T05:00:06;98433.28;;;11.73;98.34
5905;BME280;2978;42.012;24.880;2023-03-22T05:02:34;98432.44;;;11.72;98.21
5905;BME280;2978;42.012;24.880;2023-03-22T05:05:03;98437.72;;;11.64;98.42
5905;BME280;2978;42.012;24.880;2023-03-22T05:07:29;98439.91;;;11.67;99.13
5905;BME280;2978;42.012;24.880;2023-03-22T05:09:54;98450.94;;;11.67;99.57
5905;BME280;2978;42.012;24.880;2023-03-22T05:12:20;98458.00;;;11.78;100.00
5905;BME280;2978;42.012;24.880;2023-03-22T05:14:45;98461.63;;;11.73;99.60
5905;BME280;2978;42.012;24.880;2023-03-22T05:17:10;98455.88;;;11.70;99.35
5905;BME280;2978;42.012;24.880;2023-03-22T05:19:36;98453.94;;;11.70;99.20
5905;BME280;2978;42.012;24.880;2023-03-22T05:22:01;98444.88;;;11.70;98.50
5905;BME280;2978;42.012;24.880;2023-03-22T05:24:30;98462.38;;;11.79;99.08
5905;BME280;2978;42.012;24.880;2023-03-22T05:26:56;98460.81;;;11.73;99.42
5905;BME280;2978;42.012;24.880;2023-03-22T05:29:26;98457.75;;;11.74;99.22
5905;BME280;2978;42.012;24.880;2023-03-22T05:31:52;98470.88;;;11.82;100.00
5905;BME280;2978;42.012;24.880;2023-03-22T05:34:17;98466.22;;;11.83;100.00
5905;BME280;2978;42.012;24.880;2023-03-22T05:36:44;98473.94;;;11.81;98.90
5905;BME280;2978;42.012;24.880;2023-03-22T05:39:10;98475.41;;;11.68;99.10
5905;BME280;2978;42.012;24.880;2023-03-22T05:41:36;98482.34;;;11.66;98.76
5905;BME280;2978;42.012;24.880;2023-03-22T05:44:01;98487.28;;;11.69;98.53
5905;BME280;2978;42.012;24.880;2023-03-22T05:46:27;98502.66;;;11.75;98.72
5905;BME280;2978;42.012;24.880;2023-03-22T05:48:52;98515.25;;;11.81;98.80
5905;BME280;2978;42.012;24.880;2023-03-22T05:51:18;98518.69;;;11.68;98.28
5905;BME280;2978;42.012;24.880;2023-03-22T05:53:47;98518.16;;;11.61;98.32
5905;BME280;2978;42.012;24.880;2023-03-22T05:56:13;98527.56;;;11.55;98.38
5905;BME280;2978;42.012;24.880;2023-03-22T05:58:47;98531.13;;;11.55;99.31
5905;BME280;2978;42.012;24.880;2023-03-22T06:01:23;98537.41;;;11.66;99.71
5905;BME280;2978;42.012;24.880;2023-03-22T06:03:49;98548.44;;;11.66;99.15
5905;BME280;2978;42.012;24.880;2023-03-22T06:06:15;98536.31;;;11.62;99.31
5905;BME280;2978;42.012;24.880;2023-03-22T06:08:41;98544.00;;;11.65;99.15
5905;BME280;2978;42.012;24.880;2023-03-22T06:11:07;98553.38;;;11.64;98.38
5905;BME280;2978;42.012;24.880;2023-03-22T06:13:33;98549.56;;;11.55;98.84
5905;BME280;2978;42.012;24.880;2023-03-22T06:16:02;98546.25;;;11.58;98.99
5905;BME280;2978;42.012;24.880;2023-03-22T06:18:28;98551.19;;;11.66;99.63
5905;BME280;2978;42.012;24.880;2023-03-22T06:20:54;98552.81;;;11.67;99.57
5905;BME280;2978;42.012;24.880;2023-03-22T06:23:19;98562.16;;;11.71;99.86
5905;BME280;2978;42.012;24.880;2023-03-22T06:25:45;98555.78;;;11.75;99.92
5905;BME280;2978;42.012;24.880;2023-03-22T06:28:10;98567.53;;;11.86;99.52
5905;BME280;2978;42.012;24.880;2023-03-22T06:30:36;98562.28;;;11.89;99.25
5905;BME280;2978;42.012;24.880;2023-03-22T06:33:02;98563.59;;;11.97;98.79
5905;BME280;2978;42.012;24.880;2023-03-22T06:35:30;98563.53;;;12.02;98.36
5905;BME280;2978;42.012;24.880;2023-03-22T06:37:55;98571.75;;;12.07;98.33
5905;BME280;2978;42.012;24.880;2023-03-22T06:40:21;98579.97;;;12.12;98.22
5905;BME280;2978;42.012;24.880;2023-03-22T06:42:46;98574.47;;;12.12;98.69
5905;BME280;2978;42.012;24.880;2023-03-22T06:45:12;98565.88;;;12.18;98.51
5905;BME280;2978;42.012;24.880;2023-03-22T06:47:41;98578.50;;;12.24;98.49
5905;BME280;2978;42.012;24.880;2023-03-22T06:50:07;98585.44;;;12.22;97.58
5905;BME280;2978;42.012;24.880;2023-03-22T06:52:32;98574.78;;;12.39;97.79
5905;BME280;2978;42.012;24.880;2023-03-22T06:54:57;98579.59;;;12.52;96.69
5905;BME280;2978;42.012;24.880;2023-03-22T06:57:23;98575.72;;;12.53;95.58
5905;BME280;2978;42.012;24.880;2023-03-22T06:59:48;98579.50;;;12.62;95.34
5905;BME280;2978;42.012;24.880;2023-03-22T07:02:14;98578.91;;;12.65;95.26
5905;BME280;2978;42.012;24.880;2023-03-22T07:04:39;98580.19;;;12.73;95.45
5905;BME280;2978;42.012;24.880;2023-03-22T07:07:05;98569.13;;;12.73;95.07
5905;BME280;2978;42.012;24.880;2023-03-22T07:09:30;98557.13;;;12.64;96.63
5905;BME280;2978;42.012;24.880;2023-03-22T07:11:56;98553.13;;;12.51;97.43
5905;BME280;2978;42.012;24.880;2023-03-22T07:14:21;98531.19;;;12.41;98.84
5905;BME280;2978;42.012;24.880;2023-03-22T07:16:46;98536.06;;;12.49;98.67
5905;BME280;2978;42.012;24.880;2023-03-22T07:19:12;98541.50;;;12.54;98.77
5905;BME280;2978;42.012;24.880;2023-03-22T07:21:37;98543.69;;;12.57;98.17
5905;BME280;2978;42.012;24.880;2023-03-22T07:24:03;98536.69;;;12.65;97.95
5905;BME280;2978;42.012;24.880;2023-03-22T07:26:29;98541.78;;;12.76;97.02
5905;BME280;2978;42.012;24.880;2023-03-22T07:28:55;98542.44;;;12.92;95.42
5905;BME280;2978;42.012;24.880;2023-03-22T07:31:21;98556.31;;;13.10;93.83
5905;BME280;2978;42.012;24.880;2023-03-22T07:33:47;98571.03;;;13.24;92.61
5905;BME280;2978;42.012;24.880;2023-03-22T07:36:12;98575.00;;;13.37;91.67
5905;BME280;2978;42.012;24.880;2023-03-22T07:38:38;98583.16;;;13.23;91.44
5905;BME280;2978;42.012;24.880;2023-03-22T07:41:04;98579.72;;;13.13;92.82
5905;BME280;2978;42.012;24.880;2023-03-22T07:43:30;98582.19;;;13.14;94.50
5905;BME280;2978;42.012;24.880;2023-03-22T07:45:55;98586.44;;;13.25;92.71
5905;BME280;2978;42.012;24.880;2023-03-22T07:48:22;98596.31;;;13.31;91.57
5905;BME280;2978;42.012;24.880;2023-03-22T07:50:47;98596.31;;;13.50;91.13
5905;BME280;2978;42.012;24.880;2023-03-22T07:53:13;98602.75;;;13.64;90.63
5905;BME280;2978;42.012;24.880;2023-03-22T07:55:39;98612.84;;;13.74;90.15
5905;BME280;2978;42.012;24.880;2023-03-22T07:58:06;98603.97;;;13.58;89.60
5905;BME280;2978;42.012;24.880;2023-03-22T08:00:33;98605.41;;;13.32;90.71
5905;BME280;2978;42.012;24.880;2023-03-22T08:02:59;98607.91;;;13.33;91.35
5905;BME280;2978;42.012;24.880;2023-03-22T08:05:25;98616.03;;;13.25;92.08
5905;BME280;2978;42.012;24.880;2023-03-22T08:07:51;98624.34;;;12.96;92.97
5905;BME280;2978;42.012;24.880;2023-03-22T08:10:18;98616.94;;;12.92;93.74
5905;BME280;2978;42.012;24.880;2023-03-22T08:12:44;98624.47;;;12.86;94.80
5905;BME280;2978;42.012;24.880;2023-03-22T08:15:09;98625.56;;;12.85;94.51
5905;BME280;2978;42.012;24.880;2023-03-22T08:17:35;98631.72;;;12.77;95.35
5905;BME280;2978;42.012;24.880;2023-03-22T08:20:01;98621.88;;;12.95;94.83
5905;BME280;2978;42.012;24.880;2023-03-22T08:22:30;98620.88;;;13.09;92.95
5905;BME280;2978;42.012;24.880;2023-03-22T08:24:56;98635.03;;;13.03;92.95
5905;BME280;2978;42.012;24.880;2023-03-22T08:27:21;98640.56;;;13.03;93.70
5905;BME280;2978;42.012;24.880;2023-03-22T08:29:47;98619.41;;;13.17;92.79
5905;BME280;2978;42.012;24.880;2023-03-22T08:32:14;98623.94;;;13.31;92.15
5905;BME280;2978;42.012;24.880;2023-03-22T08:34:40;98628.94;;;13.29;91.88
5905;BME280;2978;42.012;24.880;2023-03-22T08:37:06;98629.53;;;13.26;92.87
5905;BME280;2978;42.012;24.880;2023-03-22T08:39:33;98631.16;;;13.27;92.09
5905;BME280;2978;42.012;24.880;2023-03-22T08:41:58;98611.38;;;13.20;91.36
5905;BME280;2978;42.012;24.880;2023-03-22T08:44:24;98617.22;;;13.37;91.95
5905;BME280;2978;42.012;24.880;2023-03-22T08:46:50;98626.88;;;13.58;92.20
5905;BME280;2978;42.012;24.880;2023-03-22T08:49:16;98628.97;;;13.67;91.45
5905;BME280;2978;42.012;24.880;2023-03-22T08:51:41;98626.72;;;13.69;91.05
5905;BME280;2978;42.012;24.880;2023-03-22T08:54:07;98628.81;;;13.77;90.23
5905;BME280;2978;42.012;24.880;2023-03-22T08:56:33;98631.50;;;13.82;90.60
5905;BME280;2978;42.012;24.880;2023-03-22T08:59:03;98634.94;;;13.74;90.05
5905;BME280;2978;42.012;24.880;2023-03-22T09:01:28;98629.84;;;13.43;91.04
5905;BME280;2978;42.012;24.880;2023-03-22T09:03:55;98636.78;;;13.41;91.71
5905;BME280;2978;42.012;24.880;2023-03-22T09:06:20;98628.19;;;13.42;91.37
5905;BME280;2978;42.012;24.880;2023-03-22T09:08:46;98628.97;;;13.67;91.54
5905;BME280;2978;42.012;24.880;2023-03-22T09:11:12;98637.19;;;13.72;90.61
5905;BME280;2978;42.012;24.880;2023-03-22T09:13:38;98631.78;;;13.62;90.60
5905;BME280;2978;42.012;24.880;2023-03-22T09:16:05;98632.22;;;13.69;90.57
5905;BME280;2978;42.012;24.880;2023-03-22T09:18:30;98623.00;;;13.78;91.78
5905;BME280;2978;42.012;24.880;2023-03-22T09:20:56;98624.56;;;13.84;90.94
5905;BME280;2978;42.012;24.880;2023-03-22T09:23:21;98619.41;;;13.78;90.50
5905;BME280;2978;42.012;24.880;2023-03-22T09:25:47;98624.72;;;13.93;91.86
5905;BME280;2978;42.012;24.880;2023-03-22T09:28:16;98617.22;;;13.93;91.61
5905;BME280;2978;42.012;24.880;2023-03-22T09:30:42;98613.94;;;14.10;91.65
5905;BME280;2978;42.012;24.880;2023-03-22T09:33:09;98613.59;;;14.30;90.39
5905;BME280;2978;42.012;24.880;2023-03-22T09:35:39;98616.66;;;14.47;89.58
5905;BME280;2978;42.012;24.880;2023-03-22T09:38:05;98622.00;;;14.71;87.92
5905;BME280;2978;42.012;24.880;2023-03-22T09:40:36;98619.47;;;15.01;86.85
5905;BME280;2978;42.012;24.880;2023-03-22T09:43:05;98628.19;;;15.08;83.91
5905;BME280;2978;42.012;24.880;2023-03-22T09:45:38;98634.75;;;15.39;83.17
5905;BME280;2978;42.012;24.880;2023-03-22T09:48:13;98633.81;;;15.57;81.67
5905;BME280;2978;42.012;24.880;2023-03-22T09:50:47;98633.91;;;15.66;80.58
5905;BME280;2978;42.012;24.880;2023-03-22T09:53:15;98642.81;;;15.76;79.52
5905;BME280;2978;42.012;24.880;2023-03-22T09:58:51;98635.06;;;16.45;78.36
5905;BME280;2978;42.012;24.880;2023-03-22T10:07:29;98629.69;;;17.40;74.14
5905;BME280;2978;42.012;24.880;2023-03-22T10:12:42;98629.53;;;17.45;73.07
5905;BME280;2978;42.012;24.880;2023-03-22T10:15:40;98630.75;;;17.61;72.43
5905;BME280;2978;42.012;24.880;2023-03-22T10:18:17;98624.75;;;17.76;71.73
5905;BME280;2978;42.012;24.880;2023-03-22T10:21:10;98617.72;;;17.96;71.01
5905;BME280;2978;42.012;24.880;2023-03-22T10:23:43;98624.25;;;18.09;70.85
5905;BME280;2978;42.012;24.880;2023-03-22T10:26:36;98624.59;;;17.98;70.27
5905;BME280;2978;42.012;24.880;2023-03-22T10:29:17;98614.44;;;17.94;70.94
5905;BME280;2978;42.012;24.880;2023-03-22T10:31:46;98613.28;;;17.78;72.10
5905;BME280;2978;42.012;24.880;2023-03-22T10:36:47;98606.72;;;17.74;71.50
5905;BME280;2978;42.012;24.880;2023-03-22T10:39:31;98603.34;;;18.03;71.45
5905;BME280;2978;42.012;24.880;2023-03-22T10:42:00;98598.38;;;18.17;70.00
5905;BME280;2978;42.012;24.880;2023-03-22T10:44:28;98599.34;;;18.38;69.77
5905;BME280;2978;42.012;24.880;2023-03-22T10:46:55;98591.34;;;18.36;69.35
5905;BME280;2978;42.012;24.880;2023-03-22T10:49:33;98602.47;;;18.36;68.14
5905;BME280;2978;42.012;24.880;2023-03-22T10:54:44;98602.13;;;18.38;67.75
5905;BME280;2978;42.012;24.880;2023-03-22T10:57:10;98599.53;;;18.24;67.84
5905;BME280;2978;42.012;24.880;2023-03-22T10:59:48;98602.81;;;18.18;68.00
5905;BME280;2978;42.012;24.880;2023-03-22T11:02:25;98605.94;;;18.08;68.39
5905;BME280;2978;42.012;24.880;2023-03-22T11:04:54;98595.78;;;17.94;69.41
5905;BME280;2978;42.012;24.880;2023-03-22T11:10:00;98599.22;;;18.00;69.18
5905;BME280;2978;42.012;24.880;2023-03-22T11:12:40;98593.00;;;18.03;68.74
5905;BME280;2978;42.012;24.880;2023-03-22T11:15:21;98584.97;;;18.02;69.64
5905;BME280;2978;42.012;24.880;2023-03-22T11:17:47;98583.69;;;18.16;69.75
5905;BME280;2978;42.012;24.880;2023-03-22T11:20:15;98593.66;;;18.09;69.10
5905;BME280;2978;42.012;24.880;2023-03-22T11:22:42;98591.38;;;18.02;68.55
5905;BME280;2978;42.012;24.880;2023-03-22T11:25:15;98588.91;;;18.18;68.56
5905;BME280;2978;42.012;24.880;2023-03-22T11:27:51;98589.56;;;18.15;68.75
5905;BME280;2978;42.012;24.880;2023-03-22T11:30:27;98593.81;;;18.04;68.45
5905;BME280;2978;42.012;24.880;2023-03-22T11:33:20;98586.94;;;18.27;67.56
5905;BME280;2978;42.012;24.880;2023-03-22T11:35:52;98579.25;;;18.41;67.23
5905;BME280;2978;42.012;24.880;2023-03-22T11:38:38;98582.66;;;18.55;67.05
5905;BME280;2978;42.012;24.880;2023-03-22T11:41:18;98583.47;;;18.55;66.33
5905;BME280;2978;42.012;24.880;2023-03-22T11:43:46;98576.09;;;18.59;66.32
5905;BME280;2978;42.012;24.880;2023-03-22T11:46:15;98575.50;;;18.83;66.76
5905;BME280;2978;42.012;24.880;2023-03-22T11:48:44;98570.72;;;18.92;65.43
5905;BME280;2978;42.012;24.880;2023-03-22T11:51:31;98566.00;;;18.92;65.84
5905;BME280;2978;42.012;24.880;2023-03-22T11:54:07;98566.28;;;18.99;63.76
5905;BME280;2978;42.012;24.880;2023-03-22T11:56:33;98557.19;;;19.11;63.50
5905;BME280;2978;42.012;24.880;2023-03-22T11:59:21;98563.97;;;19.01;64.27
5905;BME280;2978;42.012;24.880;2023-03-22T12:04:23;98567.84;;;18.80;63.78
5905;BME280;2978;42.012;24.880;2023-03-22T12:06:55;98567.34;;;18.78;63.34
5905;BME280;2978;42.012;24.880;2023-03-22T12:12:14;98564.22;;;18.79;62.95
5905;BME280;2978;42.012;24.880;2023-03-22T12:17:38;98557.59;;;18.63;63.25
5905;BME280;2978;42.012;24.880;2023-03-22T12:22:53;98559.78;;;18.87;61.69
5905;BME280;2978;42.012;24.880;2023-03-22T12:25:26;98556.47;;;18.93;61.52
5905;BME280;2978;42.012;24.880;2023-03-22T12:28:16;98556.31;;;18.90;61.99
5905;BME280;2978;42.012;24.880;2023-03-22T12:30:48;98562.56;;;18.87;61.66
5905;BME280;2978;42.012;24.880;2023-03-22T12:33:21;98560.81;;;18.74;61.55
5905;BME280;2978;42.012;24.880;2023-03-22T12:35:50;98557.41;;;18.68;62.04
5905;BME280;2978;42.012;24.880;2023-03-22T12:40:48;98570.50;;;18.68;62.60
5905;BME280;2978;42.012;24.880;2023-03-22T12:43:17;98565.19;;;18.83;62.11
5905;BME280;2978;42.012;24.880;2023-03-22T12:45:49;98565.25;;;18.66;60.02
5905;BME280;2978;42.012;24.880;2023-03-22T12:48:41;98568.00;;;18.75;58.85
5905;BME280;2978;42.012;24.880;2023-03-22T12:51:11;98558.81;;;18.83;58.73
5905;BME280;2978;42.012;24.880;2023-03-22T12:53:44;98554.09;;;18.75;57.71
5905;BME280;2978;42.012;24.880;2023-03-22T12:56:13;98552.78;;;18.81;57.75
5905;BME280;2978;42.012;24.880;2023-03-22T12:58:41;98555.19;;;18.91;56.83
5905;BME280;2978;42.012;24.880;2023-03-22T13:01:20;98558.63;;;18.88;55.91
5905;BME280;2978;42.012;24.880;2023-03-22T13:03:51;98554.16;;;18.95;56.15
5905;BME280;2978;42.012;24.880;2023-03-22T13:09:19;98560.69;;;18.70;56.48
5905;BME280;2978;42.012;24.880;2023-03-22T13:20:20;98565.50;;;17.59;52.54
5905;BME280;2978;42.012;24.880;2023-03-22T13:33:01;98581.19;;;16.46;56.87
5905;BME280;2978;42.012;24.880;2023-03-22T13:35:50;98579.97;;;16.08;57.76
5905;BME280;2978;42.012;24.880;2023-03-22T13:38:24;98577.00;;;15.82;72.78
5905;BME280;2978;42.012;24.880;2023-03-22T13:43:48;98576.97;;;15.46;78.19
5905;BME280;2978;42.012;24.880;2023-03-22T13:51:25;98580.78;;;15.37;77.47
5905;BME280;2978;42.012;24.880;2023-03-22T13:53:57;98581.81;;;15.27;78.36
5905;BME280;2978;42.012;24.880;2023-03-22T13:56:53;98582.66;;;15.14;78.24
5905;BME280;2978;42.012;24.880;2023-03-22T14:10:02;98581.91;;;15.22;82.03
5905;BME280;2978;42.012;24.880;2023-03-22T14:12:55;98579.88;;;15.28;81.68
5905;BME280;2978;42.012;24.880;2023-03-22T14:15:31;98581.22;;;15.30;82.57
5905;BME280;2978;42.012;24.880;2023-03-22T14:18:02;98578.22;;;15.13;82.94
5905;BME280;2978;42.012;24.880;2023-03-22T14:20:34;98579.59;;;15.02;84.43
5905;BME280;2978;42.012;24.880;2023-03-22T14:23:05;98591.06;;;14.82;83.71
5905;BME280;2978;42.012;24.880;2023-03-22T14:25:33;98578.56;;;14.85;84.27
5905;BME280;2978;42.012;24.880;2023-03-22T14:28:00;98580.91;;;14.91;84.10
5905;BME280;2978;42.012;24.880;2023-03-22T14:33:00;98586.56;;;15.00;83.78
5905;BME280;2978;42.012;24.880;2023-03-22T14:35:46;98585.34;;;15.06;83.55
5905;BME280;2978;42.012;24.880;2023-03-22T14:38:17;98592.06;;;15.13;82.38
5905;BME280;2978;42.012;24.880;2023-03-22T14:40:44;98586.53;;;15.13;82.28
5905;BME280;2978;42.012;24.880;2023-03-22T14:43:22;98581.63;;;14.97;82.62
5905;BME280;2978;42.012;24.880;2023-03-22T14:45:55;98579.81;;;14.92;82.05
5905;BME280;2978;42.012;24.880;2023-03-22T14:48:30;98590.88;;;14.92;83.44
5905;BME280;2978;42.012;24.880;2023-03-22T14:50:56;98578.16;;;14.78;81.46
5905;BME280;2978;42.012;24.880;2023-03-22T14:53:38;98587.06;;;14.75;80.78
5905;BME280;2978;42.012;24.880;2023-03-22T14:56:14;98583.59;;;14.83;80.53
5905;BME280;2978;42.012;24.880;2023-03-22T14:58:42;98582.28;;;14.80;79.97
5905;BME280;2978;42.012;24.880;2023-03-22T15:01:12;98580.81;;;14.83;80.90
5905;BME280;2978;42.012;24.880;2023-03-22T15:03:42;98587.88;;;14.75;79.69
5905;BME280;2978;42.012;24.880;2023-03-22T15:06:10;98585.09;;;14.75;79.97
5905;BME280;2978;42.012;24.880;2023-03-22T15:08:36;98590.06;;;14.78;80.20
5905;BME280;2978;42.012;24.880;2023-03-22T15:11:06;98584.47;;;14.64;81.24